Flight Track Log - Related Links

Times and Time Zones

All times are in EDT time to prevent confusion due to time zone crossing. See the SWA757 flight status page for this flight to view local times or setup timezone preferences in your user account.


Time Position Orientation Groundspeed Altitude Reporting Facility
EDT Latitude Longitude Course Direction KTS MPH feet Rate Location/Type
Mon 11:14:13 PM 37.3833 -121.9500 22° Northeast 157 181 1,900  Level Northern Cal TRACON
Mon 11:15:07 PM 37.4167 -121.9333 22° Northeast 247 284 4,700 2,838 Climbing Northern Cal TRACON
Mon 11:17:00 PM 37.3453 -121.8194 128° Southeast 263 303 9,800 2,983 Climbing Oakland Center
Mon 11:18:02 PM 37.2611 -121.7231 138° Southeast 347 399 13,400 3,463 Climbing Oakland Center
Mon 11:19:03 PM 37.1792 -121.6300 138° Southeast 392 451 16,900 3,492 Climbing Oakland Center
Mon 11:20:04 PM 37.0928 -121.5347 139° Southeast 412 474 20,500 3,049 Climbing Oakland Center
Mon 11:21:05 PM 37.0150 -121.4475 138° Southeast 425 489 23,100 2,803 Climbing Oakland Center
Mon 11:22:06 PM 36.8997 -121.3231 139° Southeast 456 525 26,200 2,557 Climbing Oakland Center
Mon 11:23:07 PM 36.8122 -121.2236 138° Southeast 468 539 28,300 2,459 Climbing Oakland Center
Mon 11:24:08 PM 36.7100 -121.1167 140° Southeast 480 552 31,200 2,656 Climbing Oakland Center
Mon 11:25:09 PM 36.6139 -121.0103 138° Southeast 466 536 33,700 2,164 Climbing Oakland Center
Mon 11:26:10 PM 36.5139 -120.9039 139° Southeast 470 541 35,600 1,967 Climbing Oakland Center
Mon 11:27:11 PM 36.4167 -120.7942 138° Southeast 472 543 37,700 1,672 Climbing Oakland Center
Mon 11:28:12 PM 36.2981 -120.6686 140° Southeast 467 537 39,000 639 Climbing Oakland Center
Mon 11:29:13 PM 36.1997 -120.5642 139° Southeast 466 536 39,000  Level Oakland Center
Mon 11:30:14 PM 36.0992 -120.4547 139° Southeast 480 552 39,000  Level Oakland Center
Mon 11:31:15 PM 36.0008 -120.3508 139° Southeast 462 532 39,000  Level Oakland Center
Mon 11:32:16 PM 35.9025 -120.2475 140° Southeast 460 529 39,000  Level Oakland Center
Mon 11:33:17 PM 35.8031 -120.1422 139° Southeast 466 536 39,000  Level Oakland Center
Mon 11:34:18 PM 35.7031 -120.0372 140° Southeast 468 539 39,000  Level Oakland Center
Mon 11:35:19 PM 35.6014 -119.9383 142° Southeast 463 533 39,000  Level Oakland Center
Mon 11:36:20 PM 35.4950 -119.8467 145° Southeast 462 532 39,000  Level Oakland Center
Mon 11:37:21 PM 35.3886 -119.7553 145° Southeast 462 532 39,000  Level Oakland Center
Mon 11:38:22 PM 35.2831 -119.6650 145° Southeast 462 532 39,000  Level Oakland Center
Mon 11:39:23 PM 35.1767 -119.5747 145° Southeast 463 533 39,000  Level Oakland Center
Mon 11:40:24 PM 35.0708 -119.4842 145° Southeast 463 533 39,000  Level Oakland Center
Mon 11:41:25 PM 34.9639 -119.3950 146° Southeast 463 533 39,000  Level Oakland Center
Mon 11:42:26 PM 34.8592 -119.3056 145° Southeast 461 531 39,000  Level Oakland Center
Mon 11:43:27 PM 34.7528 -119.2150 145° Southeast 463 533 39,000  Level Oakland Center
Mon 11:44:39 PM 34.6250 -119.1061 145° Southeast 468 539 39,000  Level Los Angeles Center
Mon 11:45:40 PM 34.4944 -118.9969 145° Southeast 474 545 39,000  Level Los Angeles Center
Mon 11:46:42 PM 34.3856 -118.9067 146° Southeast 474 545 39,000  Level Los Angeles Center
Mon 11:47:43 PM 34.2839 -118.8058 141° Southeast 480 552 39,000 -439 Level Los Angeles Center
Mon 11:48:45 PM 34.1861 -118.7006 138° Southeast 472 543 38,100 -878 Descending Los Angeles Center
Mon 11:49:46 PM 34.0886 -118.5992 139° Southeast 465 535 37,200 -927 Descending Los Angeles Center
Mon 11:50:48 PM 33.9908 -118.4939 138° Southeast 468 539 36,200 -927 Descending Los Angeles Center
Mon 11:51:49 PM 33.8950 -118.3828 136° Southeast 474 545 35,300 -976 Descending Los Angeles Center
Mon 11:52:51 PM 33.7958 -118.2503 132° Southeast 478 550 34,200 -1,073 Descending Los Angeles Center
Mon 11:53:52 PM 33.7047 -118.1383 134° Southeast 485 558 33,100 -2,195 Descending Los Angeles Center
Mon 11:54:54 PM 33.6119 -118.0214 134° Southeast 484 557 29,700 -2,927 Descending Los Angeles Center
Mon 11:55:55 PM 33.5208 -117.9064 134° Southeast 479 551 27,100 -2,634 Descending Los Angeles Center
Mon 11:56:57 PM 33.4336 -117.7956 133° Southeast 466 536 24,300 -3,200 Descending Los Angeles Center
Mon 11:57:25 PM 33.3833 -117.7167 127° Southeast 442 509 22,300 -3,443 Descending Southern California TRACON
Mon 11:57:58 PM 33.3331 -117.6681 141° Southeast 445 512 20,800 -2,745 Descending Los Angeles Center
Mon 11:58:59 PM 33.2511 -117.5667 134° Southeast 431 496 18,000 -2,667 Descending Los Angeles Center
Mon 11:59:19 PM 33.2167 -117.5500 158° South 419 482 17,200 -2,775 Descending Southern California TRACON
Tue 12:00:19 AM 33.1333 -117.4667 140° Southeast 399 459 14,300 -2,621 Descending Southern California TRACON
Tue 12:01:02 AM 33.0703 -117.4150 146° Southeast 397 457 12,700 -1,543 Descending Los Angeles Center
Tue 12:02:04 AM 32.9872 -117.3503 147° Southeast 366 421 11,600 -1,169 Descending Los Angeles Center
Tue 12:02:19 AM 32.9667 -117.3333 145° Southeast 323 372 11,200 -1,478 Descending Southern California TRACON
Tue 12:03:13 AM 32.9000 -117.2833 148° Southeast 309 356 9,900 -1,389 Descending Southern California TRACON
Tue 12:04:07 AM 32.8442 -117.2344 144° Southeast 313 360 8,700 -1,513 Descending Los Angeles Center
Tue 12:05:08 AM 32.8011 -117.1567 123° Southeast 308 354 7,000 -1,714 Descending Los Angeles Center
Tue 12:06:13 AM 32.7667 -117.0333 108° East 286 329 5,100 -1,008 Descending Southern California TRACON
Tue 12:07:13 AM 32.7500 -116.9667 107° East 232 267 4,900 -600 Descending Southern California TRACON
Tue 12:08:13 AM 32.7000 -116.9667 180° South 198 228 3,900 -626 Descending Southern California TRACON
Tue 12:09:08 AM 32.6833 -117.0000 239° Southwest 166 191 3,700 -793 Descending Southern California TRACON
Tue 12:10:14 AM 32.7000 -117.0500 292° West 148 170 2,300 -1,095 Descending Southern California TRACON
Tue 12:11:14 AM 32.7167 -117.1000 292° West 131 151 1,400 -800 Descending Southern California TRACON
Tue 12:12:14 AM 32.7167 -117.1500 270° West 129 148 700 -700 Descending Southern California TRACON
Tue 12:15:00 AM 32.7333 -117.1833 287° West  Level FlightAware Approximate

Login

Don't have an account? Register now (free) for customized features, flight alerts, and more!